Gentle Leader — C6WY9 — position and weather

sailwx.info

Track history (hours):
 
Tides and Currents Weather Stations Pressure Air Temp Water Temp Dewpoint Dewpoint Depression Visibility Wind Speed Wind Dir Waves Ship Positions

Gentle Leader

Last reported at 2016-Jul-06 00:11 UTC. Time now 2016-Jul-27 21:13 UTC.
Position N 31°11' E 032°18'.
Warning: this ship's position is 21 days out of date.

Length 200 m; draft 9.3 m.

Type: Cargo ship. MMSI: 311003300.

Date/timePositionNaut miles runAvg speedWind from/ knotsBaromVisibWave heightAir tempDewpointWater temp
2016-Jul-06 00:11N 31°11' E 032°18'5 7.1
2016-Jul-05 23:25N 31°16' E 032°19'6 6.5
2016-Jul-05 22:33N 31°21' E 032°21'1 0.1
2016-Jul-05 15:22N 31°22' E 032°20'53 3.7
2016-Jul-05 01:04N 31°59' E 031°35'5 9.7
2016-Jul-05 00:30N 32°03' E 031°31'9 9.5
2016-Jul-04 23:33N 32°10' E 031°24'29 9.6
2016-Jul-04 20:33N 32°31' E 031°01'10 9.9
2016-Jul-04 19:33N 32°39' E 030°53'14 9.8
2016-Jul-04 18:09N 32°49' E 030°42'6 9.7
2016-Jul-04 17:29N 32°53' E 030°37'9 9.8
2016-Jul-04 16:33N 33°00' E 030°30'34912.9
2016-Jul-03 13:33N 37°26' E 025°54'232 8.9
2016-Jul-02 11:25N 40°25' E 029°05'147 3.6
2016-Jun-30 18:10N 39°55' E 025°56'914.0
2016-Jun-30 17:33N 39°49' E 025°49'9114.9
2016-Jun-30 11:29N 38°28' E 024°57'4314.4
2016-Jun-30 08:30N 37°48' E 024°34'4314.4
2016-Jun-30 05:31N 37°10' E 024°10'1414.9
2016-Jun-30 04:33N 36°57' E 024°04'1514.7
2016-Jun-30 03:33N 36°44' E 023°54'1615.5
2016-Jun-30 02:33N 36°35' E 023°38'2115.6
2016-Jun-30 01:11N 36°23' E 023°16'30416.2
2016-Jun-29 06:28N 37°32' E 017°06'3919.1
2016-Jun-29 04:26N 37°43' E 016°18'1618.9
2016-Jun-29 03:33N 37°47' E 015°58'1818.4
2016-Jun-29 02:34N 37°53' E 015°36'1717.4
2016-Jun-29 01:34N 38°10' E 015°35'1414.0
2016-Jun-29 00:33N 38°24' E 015°37'1413.8
2016-Jun-28 23:33N 38°37' E 015°29'5518.3
2016-Jun-28 20:31N 39°18' E 014°42'4819.7
2016-Jun-28 18:06N 39°50' E 013°56'1819.7
2016-Jun-28 17:11N 40°02' E 013°38'1219.6
2016-Jun-28 16:33N 40°10' E 013°26'23119.3
2016-Jun-28 04:33N 42°48' E 009°41'1919.5
2016-Jun-28 03:34N 43°06' E 009°32'2019.6
2016-Jun-28 02:34N 43°23' E 009°19'1919.1
2016-Jun-28 01:33N 43°40' E 009°05'1919.4
2016-Jun-28 00:34N 43°56' E 008°51'1818.3
2016-Jun-27 23:33N 44°12' E 008°38'9 8.5
2016-Jun-27 22:31N 44°19' E 008°30'0 0.0
2016-Jun-27 21:31N 44°19' E 008°30'0 0.0
2016-Jun-27 20:31N 44°19' E 008°30'0 0.0
2016-Jun-27 19:31N 44°19' E 008°30'0 0.0
2016-Jun-27 18:31N 44°19' E 008°30'0 0.0
2016-Jun-27 17:31N 44°19' E 008°30'0 0.0
2016-Jun-27 16:31N 44°19' E 008°30'0 0.0
2016-Jun-27 15:31N 44°19' E 008°30'0 0.0
2016-Jun-27 14:31N 44°19' E 008°30'0 0.0
2016-Jun-27 13:31N 44°19' E 008°30'0 0.0
2016-Jun-27 12:19N 44°19' E 008°30'0 0.0
2016-Jun-27 11:31N 44°19' E 008°30'3 2.9
2016-Jun-27 10:33N 44°17' E 008°33'4 3.5
2016-Jun-27 09:33N 44°14' E 008°35'2 1.8
2016-Jun-27 08:33N 44°16' E 008°34'0 0.3
2016-Jun-27 07:33N 44°15' E 008°34'5 5.3
2016-Jun-27 06:33N 44°10' E 008°34'1010.0
2016-Jun-27 05:33N 44°01' E 008°29'10 9.6
2016-Jun-27 04:33N 43°52' E 008°24'19 9.5
2016-Jun-27 02:30N 43°39' E 008°04'19 8.6
2016-Jun-27 00:17N 43°27' E 007°43'6 8.7
2016-Jun-26 23:33N 43°23' E 007°37'11 9.9
2016-Jun-26 22:25N 43°16' E 007°24'1010.0
2016-Jun-26 21:25N 43°09' E 007°14'1910.3
2016-Jun-26 19:33N 42°58' E 006°53'2010.0
2016-Jun-26 17:32N 42°46' E 006°30'9 8.9
2016-Jun-26 16:33N 42°42' E 006°20'11710.6
2016-Jun-26 05:33N 41°52' E 003°57'1313.2
2016-Jun-26 04:33N 41°47' E 003°41'1413.4
2016-Jun-26 03:32N 41°41' E 003°24'2014.2
2016-Jun-26 02:10N 41°33' E 003°01'1014.3
2016-Jun-26 01:26N 41°28' E 002°48'1314.6
2016-Jun-26 00:33N 41°23' E 002°33'  
Track history (hours):
 
Tides and Currents Weather Stations Pressure Air Temp Water Temp Dewpoint Dewpoint Depression Visibility Wind Speed Wind Dir Waves Ship Positions

Gentle Leader

Last reported at 2016-Jul-06 00:11 UTC. Time now 2016-Jul-27 21:13 UTC.
Position N 31°11' E 032°18'.
Warning: this ship's position is 21 days out of date.

Length 200 m; draft 9.3 m.

Type: Cargo ship. MMSI: 311003300.

Date/timePositionNaut miles runAvg speedWind from/ knotsBaromVisibWave heightAir tempDewpointWater temp
2016-Jul-06 00:11N 31°11' E 032°18'5 7.1
2016-Jul-05 23:25N 31°16' E 032°19'6 6.5
2016-Jul-05 22:33N 31°21' E 032°21'1 0.1
2016-Jul-05 15:22N 31°22' E 032°20'53 3.7
2016-Jul-05 01:04N 31°59' E 031°35'5 9.7
2016-Jul-05 00:30N 32°03' E 031°31'9 9.5
2016-Jul-04 23:33N 32°10' E 031°24'29 9.6
2016-Jul-04 20:33N 32°31' E 031°01'10 9.9
2016-Jul-04 19:33N 32°39' E 030°53'14 9.8
2016-Jul-04 18:09N 32°49' E 030°42'6 9.7
2016-Jul-04 17:29N 32°53' E 030°37'9 9.8
2016-Jul-04 16:33N 33°00' E 030°30'34912.9
2016-Jul-03 13:33N 37°26' E 025°54'232 8.9
2016-Jul-02 11:25N 40°25' E 029°05'147 3.6
2016-Jun-30 18:10N 39°55' E 025°56'914.0
2016-Jun-30 17:33N 39°49' E 025°49'9114.9
2016-Jun-30 11:29N 38°28' E 024°57'4314.4
2016-Jun-30 08:30N 37°48' E 024°34'4314.4
2016-Jun-30 05:31N 37°10' E 024°10'1414.9
2016-Jun-30 04:33N 36°57' E 024°04'1514.7
2016-Jun-30 03:33N 36°44' E 023°54'1615.5
2016-Jun-30 02:33N 36°35' E 023°38'2115.6
2016-Jun-30 01:11N 36°23' E 023°16'30416.2
2016-Jun-29 06:28N 37°32' E 017°06'3919.1
2016-Jun-29 04:26N 37°43' E 016°18'1618.9
2016-Jun-29 03:33N 37°47' E 015°58'1818.4
2016-Jun-29 02:34N 37°53' E 015°36'1717.4
2016-Jun-29 01:34N 38°10' E 015°35'1414.0
2016-Jun-29 00:33N 38°24' E 015°37'1413.8
2016-Jun-28 23:33N 38°37' E 015°29'5518.3
2016-Jun-28 20:31N 39°18' E 014°42'4819.7
2016-Jun-28 18:06N 39°50' E 013°56'1819.7
2016-Jun-28 17:11N 40°02' E 013°38'1219.6
2016-Jun-28 16:33N 40°10' E 013°26'23119.3
2016-Jun-28 04:33N 42°48' E 009°41'1919.5
2016-Jun-28 03:34N 43°06' E 009°32'2019.6
2016-Jun-28 02:34N 43°23' E 009°19'1919.1
2016-Jun-28 01:33N 43°40' E 009°05'1919.4
2016-Jun-28 00:34N 43°56' E 008°51'1818.3
2016-Jun-27 23:33N 44°12' E 008°38'9 8.5
2016-Jun-27 22:31N 44°19' E 008°30'0 0.0
2016-Jun-27 21:31N 44°19' E 008°30'0 0.0
2016-Jun-27 20:31N 44°19' E 008°30'0 0.0
2016-Jun-27 19:31N 44°19' E 008°30'0 0.0
2016-Jun-27 18:31N 44°19' E 008°30'0 0.0
2016-Jun-27 17:31N 44°19' E 008°30'0 0.0
2016-Jun-27 16:31N 44°19' E 008°30'0 0.0
2016-Jun-27 15:31N 44°19' E 008°30'0 0.0
2016-Jun-27 14:31N 44°19' E 008°30'0 0.0
2016-Jun-27 13:31N 44°19' E 008°30'0 0.0
2016-Jun-27 12:19N 44°19' E 008°30'0 0.0
2016-Jun-27 11:31N 44°19' E 008°30'3 2.9
2016-Jun-27 10:33N 44°17' E 008°33'4 3.5
2016-Jun-27 09:33N 44°14' E 008°35'2 1.8
2016-Jun-27 08:33N 44°16' E 008°34'0 0.3
2016-Jun-27 07:33N 44°15' E 008°34'5 5.3
2016-Jun-27 06:33N 44°10' E 008°34'1010.0
2016-Jun-27 05:33N 44°01' E 008°29'10 9.6
2016-Jun-27 04:33N 43°52' E 008°24'19 9.5
2016-Jun-27 02:30N 43°39' E 008°04'19 8.6
2016-Jun-27 00:17N 43°27' E 007°43'6 8.7
2016-Jun-26 23:33N 43°23' E 007°37'11 9.9
2016-Jun-26 22:25N 43°16' E 007°24'1010.0
2016-Jun-26 21:25N 43°09' E 007°14'1910.3
2016-Jun-26 19:33N 42°58' E 006°53'2010.0
2016-Jun-26 17:32N 42°46' E 006°30'9 8.9
2016-Jun-26 16:33N 42°42' E 006°20'11710.6
2016-Jun-26 05:33N 41°52' E 003°57'1313.2
2016-Jun-26 04:33N 41°47' E 003°41'1413.4
2016-Jun-26 03:32N 41°41' E 003°24'2014.2
2016-Jun-26 02:10N 41°33' E 003°01'1014.3
2016-Jun-26 01:26N 41°28' E 002°48'1314.6
2016-Jun-26 00:33N 41°23' E 002°33'  

Dump ship's entire track history